Time;durP1;ratioP1;P1;durP2;ratioP2;P2;SDS_P1;SDS_P2;PMS_P1;PMS_P2;Temp;Humidity;BMP_temperature;BMP_pressure;BME280_temperature;BME280_humidity;BME280_pressure;Samples;Min_cycle;Max_cycle;Signal;HPM_P1;HPM_P2
2023/12/06 00:00:28;;;;;;;11.77;6.63;;;;;;;5.76;100.00;98114.31;6336412;22;20044;-93
2023/12/06 00:03:01;;;;;;;11.02;5.82;;;;;;;5.03;100.00;97976.75;6312187;22;20015;-92
2023/12/06 00:05:29;;;;;;;10.25;6.00;;;;;;;5.06;100.00;97956.50;6312293;22;20445;-93
2023/12/06 00:07:55;;;;;;;9.95;5.72;;;;;;;5.91;100.00;98063.88;6313210;22;20102;-92
2023/12/06 00:10:21;;;;;;;14.23;7.03;;;;;;;5.76;100.00;98007.00;6312948;22;20038;-92
2023/12/06 00:13:02;;;;;;;19.80;10.82;;;;;;;5.85;100.00;98000.66;6312915;22;20330;-93
2023/12/06 00:15:41;;;;;;;16.10;7.97;;;;;;;6.11;100.00;98029.19;6310958;22;20161;-91
2023/12/06 00:18:25;;;;;;;13.68;7.88;;;;;;;5.76;100.00;97933.13;6312329;22;20019;-93
2023/12/06 00:20:51;;;;;;;14.75;8.20;;;;;;;6.60;100.00;98073.94;6311970;22;20015;-92
2023/12/06 00:23:17;;;;;;;15.23;8.25;;;;;;;6.08;100.00;97976.47;6312934;22;20072;-92
2023/12/06 00:25:43;;;;;;;17.80;10.25;;;;;;;6.28;100.00;97991.88;6312519;22;20383;-93
2023/12/06 00:28:14;;;;;;;20.45;8.88;;;;;;;6.35;100.00;97998.78;6312861;22;20018;-92
2023/12/06 00:30:42;;;;;;;23.00;11.85;;;;;;;7.02;100.00;98092.34;6310368;22;20348;-94
2023/12/06 00:33:14;;;;;;;19.52;10.00;;;;;;;7.31;100.00;98131.34;6312349;22;20030;-93
2023/12/06 00:35:42;;;;;;;28.80;8.88;;;;;;;6.47;100.00;97954.50;6312419;22;20468;-92
2023/12/06 00:38:09;;;;;;;20.92;9.50;;;;;;;6.86;100.00;98017.84;6312514;22;20408;-94
2023/12/06 00:40:39;;;;;;;24.67;9.70;;;;;;;7.31;100.00;98094.31;6313662;22;20019;-92
2023/12/06 00:43:12;;;;;;;17.23;9.88;;;;;;;6.51;100.00;97966.72;6313676;22;20349;-92
2023/12/06 00:45:44;;;;;;;24.63;8.80;;;;;;;6.51;100.00;97977.28;6311233;22;20041;-93
2023/12/06 00:48:10;;;;;;;24.30;9.70;;;;;;;6.51;100.00;97967.59;6314352;22;20021;-92
2023/12/06 00:50:36;;;;;;;23.52;9.68;;;;;;;6.64;100.00;97993.72;6314772;22;20017;-93
2023/12/06 00:53:12;;;;;;;33.08;9.73;;;;;;;7.17;100.00;98071.69;6314131;22;20022;-93
2023/12/06 00:55:39;;;;;;;32.63;9.65;;;;;;;6.72;100.00;97981.16;6314639;22;20011;-92
2023/12/06 00:58:07;;;;;;;;;;;;;;;7.53;100.00;98131.66;6314833;22;20404;-92
2023/12/06 01:00:33;;;;;;;36.25;8.82;;;;;;;6.98;100.00;98039.56;6312514;22;19953;-92
2023/12/06 01:03:08;;;;;;;24.70;10.05;;;;;;;6.55;100.00;97956.03;6315006;22;20421;-93
2023/12/06 01:05:39;;;;;;;36.90;9.13;;;;;;;6.43;100.00;97950.19;6314399;22;20034;-92
2023/12/06 01:08:09;;;;;;;30.17;10.13;;;;;;;7.24;100.00;98108.56;6314935;22;20097;-92
2023/12/06 01:10:35;;;;;;;21.15;9.48;;;;;;;7.44;100.00;98138.06;6339930;22;20018;-91
2023/12/06 01:13:01;;;;;;;26.88;8.40;;;;;;;6.46;100.00;97958.91;6314166;22;20109;-92
2023/12/06 01:15:30;;;;;;;69.13;8.57;;;;;;;6.88;100.00;98023.97;6313571;22;20017;-92
2023/12/06 01:17:56;;;;;;;28.05;7.72;;;;;;;6.79;100.00;98057.63;6313963;22;20019;-91
2023/12/06 01:20:25;;;;;;;34.97;7.38;;;;;;;6.27;100.00;97958.47;6314136;22;20019;-92
2023/12/06 01:22:56;;;;;;;26.08;7.65;;;;;;;6.37;100.00;97986.38;6313889;22;20014;-91
2023/12/06 01:25:25;;;;;;;32.97;8.52;;;;;;;6.35;100.00;97972.38;6313167;22;20050;-91
2023/12/06 01:27:59;;;;;;;27.05;8.30;;;;;;;6.73;100.00;98047.19;6314741;22;20387;-91
2023/12/06 01:30:26;;;;;;;19.52;7.47;;;;;;;7.16;100.00;98111.41;6312479;22;20045;-93
2023/12/06 01:32:54;;;;;;;20.08;8.23;;;;;;;7.42;100.00;98158.38;6314352;22;20018;-92
2023/12/06 01:35:37;;;;;;;23.30;7.40;;;;;;;7.35;100.00;98127.69;6310192;22;20349;-92
2023/12/06 01:38:04;;;;;;;23.63;8.18;;;;;;;6.54;100.00;98001.84;6313887;22;20404;-93
2023/12/06 01:40:38;;;;;;;20.17;7.65;;;;;;;7.59;100.00;98157.97;6314049;22;20019;-93
2023/12/06 01:43:07;;;;;;;26.20;7.93;;;;;;;7.32;100.00;98118.03;6313029;22;20397;-92
2023/12/06 01:45:38;;;;;;;25.10;7.57;;;;;;;6.35;100.00;97969.72;6312194;22;20021;-93
2023/12/06 01:48:05;;;;;;;23.85;7.03;;;;;;;7.50;100.00;98140.53;6313209;22;20019;-91
2023/12/06 01:50:37;;;;;;;25.90;7.45;;;;;;;7.73;100.00;98162.91;6313326;22;20437;-93
2023/12/06 01:53:11;;;;;;;32.35;8.27;;;;;;;7.47;100.00;98127.38;6312964;22;20053;-92
2023/12/06 01:55:41;;;;;;;37.95;7.40;;;;;;;6.64;100.00;98001.66;6312813;22;20011;-93
2023/12/06 01:58:09;;;;;;;22.92;8.15;;;;;;;6.52;100.00;97995.72;6313224;22;20057;-92
2023/12/06 02:00:45;;;;;;;29.33;8.52;;;;;;;7.27;100.00;98124.38;6313157;22;20106;-92
2023/12/06 02:03:14;;;;;;;31.05;8.63;;;;;;;6.71;100.00;98013.81;6313715;22;20018;-93
2023/12/06 02:05:49;;;;;;;22.77;7.65;;;;;;;7.58;100.00;98158.88;6313363;22;20019;-94
2023/12/06 02:08:22;;;;;;;35.22;8.77;;;;;;;7.68;100.00;98154.22;6313785;22;20117;-94
2023/12/06 02:10:54;;;;;;;24.95;7.43;;;;;;;6.65;100.00;97988.38;6313929;22;20097;-95
2023/12/06 02:13:25;;;;;;;31.50;7.93;;;;;;;6.60;100.00;97974.41;6313222;22;20045;-93
2023/12/06 02:15:52;;;;;;;43.20;8.05;;;;;;;6.94;100.00;98043.19;6311469;22;20018;-95
2023/12/06 02:18:18;;;;;;;68.25;9.23;;;;;;;7.04;100.00;98054.41;6313678;22;20065;-92
2023/12/06 02:20:47;;;;;;;40.28;8.20;;;;;;;6.49;100.00;97955.31;6313520;22;20026;-93
2023/12/06 02:23:17;;;;;;;27.25;9.40;;;;;;;6.92;100.00;98036.22;6313952;22;20368;-92
2023/12/06 02:25:47;;;;;;;78.45;8.38;;;;;;;6.52;100.00;97963.16;6313692;22;20018;-93
2023/12/06 02:28:13;;;;;;;46.95;8.05;;;;;;;6.64;100.00;98015.72;6313549;22;20018;-93
2023/12/06 02:30:45;;;;;;;27.88;6.47;;;;;;;6.78;100.00;98108.72;6312354;22;20023;-95
2023/12/06 02:33:14;;;;;;;37.63;7.68;;;;;;;6.20;100.00;97985.03;6313561;22;20346;-90
2023/12/06 02:35:46;;;;;;;34.65;7.25;;;;;;;5.97;100.00;97962.66;6285801;22;20019;-93
2023/12/06 02:38:15;;;;;;;23.55;6.47;;;;;;;6.80;100.00;98114.00;6308642;22;20023;-94
2023/12/06 02:40:43;;;;;;;16.00;6.32;;;;;;;6.00;100.00;97981.03;6282185;22;20023;-94
2023/12/06 02:43:14;;;;;;;22.63;6.22;;;;;;;6.12;100.00;98048.56;6281920;22;20019;-93
2023/12/06 02:45:43;;;;;;;78.57;8.07;;;;;;;6.12;100.00;98046.78;6279838;22;20026;-92
2023/12/06 02:48:12;;;;;;;70.47;6.90;;;;;;;5.94;100.00;97991.69;6282006;22;20078;-92
2023/12/06 02:50:41;;;;;;;16.42;5.03;;;;;;;6.57;100.00;98091.59;6281957;22;20107;-94
2023/12/06 02:53:12;;;;;;;26.13;5.45;;;;;;;6.01;100.00;97987.19;6282029;22;20019;-93
2023/12/06 02:55:40;;;;;;;14.73;5.30;;;;;;;6.20;100.00;97996.44;6282496;22;20019;-93
2023/12/06 02:58:07;;;;;;;24.25;5.03;;;;;;;6.83;100.00;98095.44;6282390;22;20019;-93
2023/12/06 03:00:37;;;;;;;17.33;6.13;;;;;;;6.81;100.00;98068.19;6280644;22;20558;-92
2023/12/06 03:03:06;;;;;;;15.45;4.93;;;;;;;7.09;100.00;98121.25;6281854;22;20019;-93
2023/12/06 03:05:41;;;;;;;20.80;5.18;;;;;;;6.56;100.00;98031.72;6281611;22;20019;-91
2023/12/06 03:08:14;;;;;;;13.68;5.32;;;;;;;7.23;100.00;98139.44;6282009;22;20341;-92
2023/12/06 03:10:40;;;;;;;25.65;6.03;;;;;;;6.34;100.00;97980.31;6282635;22;20113;-92
2023/12/06 03:13:09;;;;;;;16.67;5.88;;;;;;;6.89;100.00;98055.63;6282501;22;20020;-94
2023/12/06 03:15:36;;;;;;;19.35;5.53;;;;;;;6.92;100.00;98036.22;6281444;22;20167;-91
2023/12/06 03:18:05;;;;;;;16.70;5.47;;;;;;;6.53;100.00;97962.28;6282732;22;20027;-92
2023/12/06 03:20:31;;;;;;;13.70;5.63;;;;;;;6.91;100.00;98027.38;6282237;22;20426;-94
2023/12/06 03:23:04;;;;;;;22.02;5.88;;;;;;;7.28;100.00;98134.91;6282789;22;20023;-92
2023/12/06 03:25:31;;;;;;;15.30;5.05;;;;;;;7.05;100.00;98097.56;6283096;22;20026;-93
2023/12/06 03:28:00;;;;;;;13.85;5.00;;;;;;;6.32;100.00;97975.06;6282475;22;20019;-94
2023/12/06 03:30:29;;;;;;;18.15;5.40;;;;;;;6.40;100.00;97976.66;6280864;22;20434;-92
2023/12/06 03:33:20;;;;;;;13.85;5.07;;;;;;;6.37;100.00;97974.94;6281654;22;20019;-91
2023/12/06 03:36:26;;;;;;;15.68;4.53;;;;;;;7.06;100.00;98089.59;6313746;22;20018;-91
2023/12/06 03:39:17;;;;;;;;;;;;;;;;;;;;;
2023/12/06 03:41:48;;;;;;;18.10;5.32;;;;;;;6.81;100.00;98060.25;6312908;22;20105;-94
2023/12/06 03:44:16;;;;;;;18.77;6.10;;;;;;;6.66;100.00;98011.28;6313450;22;20015;-94
2023/12/06 03:47:07;;;;;;;;;;;;;;;;;;;;;
2023/12/06 03:49:43;;;;;;;23.20;5.78;;;;;;;6.63;100.00;97984.03;6313032;22;20048;-94
2023/12/06 03:52:10;;;;;;;18.38;6.45;;;;;;;7.31;100.00;98095.16;6313142;22;20019;-94
2023/12/06 03:58:08;;;;;;;17.60;5.53;;;;;;;7.68;100.00;98170.09;6309036;22;20464;-92
2023/12/06 04:00:41;;;;;;;26.48;6.65;;;;;;;7.43;100.00;98122.22;6310705;22;20088;-92
2023/12/06 04:03:07;;;;;;;48.40;6.55;;;;;;;6.48;100.00;97964.13;6313093;22;20023;-94
2023/12/06 04:05:40;;;;;;;26.00;6.72;;;;;;;7.55;100.00;98158.97;6313004;22;20114;-93
2023/12/06 04:08:09;;;;;;;18.85;5.50;;;;;;;7.23;100.00;98117.41;6312756;22;20045;-92
2023/12/06 04:10:42;;;;;;;33.50;6.32;;;;;;;6.28;100.00;98044.69;6312066;22;20018;-92
2023/12/06 04:13:09;;;;;;;23.67;5.35;;;;;;;5.83;100.00;97986.63;6311591;22;20023;-93
2023/12/06 04:15:37;;;;;;;31.80;6.25;;;;;;;6.75;100.00;98169.59;6310071;22;20019;-92
2023/12/06 04:18:13;;;;;;;21.10;6.68;;;;;;;6.28;100.00;98057.88;6312133;22;20345;-93
2023/12/06 04:20:40;;;;;;;19.40;5.80;;;;;;;6.34;100.00;98165.16;6311238;22;20019;-93
2023/12/06 04:23:09;;;;;;;18.17;6.57;;;;;;;6.23;100.00;98136.31;6313313;22;20023;-92
2023/12/06 04:25:38;;;;;;;19.27;6.30;;;;;;;6.47;100.00;98137.59;6313439;22;20391;-93
2023/12/06 04:28:33;;;;;;;12.38;4.30;;;;;;;5.80;100.00;97999.91;6316258;22;20445;-92
2023/12/06 04:31:15;;;;;;;22.70;5.30;;;;;;;6.72;100.00;98130.03;6316258;22;20014;-92
2023/12/06 04:33:41;;;;;;;17.23;5.38;;;;;;;6.11;100.00;98021.28;6313140;22;20113;-93
2023/12/06 04:36:09;;;;;;;14.55;4.68;;;;;;;6.88;100.00;98162.25;6282903;22;20019;-94
2023/12/06 04:38:35;;;;;;;24.17;5.40;;;;;;;6.50;100.00;98103.19;6283106;22;20035;-94
2023/12/06 04:41:01;;;;;;;26.63;4.90;;;;;;;6.57;100.00;98096.00;6283369;22;20027;-91
2023/12/06 04:43:27;;;;;;;17.25;5.18;;;;;;;6.93;100.00;98199.16;6284478;22;20522;-93
2023/12/06 04:48:43;;;;;;;12.88;4.35;;;;;;;6.67;100.00;98137.16;6260617;22;20074;-93
2023/12/06 04:51:11;;;;;;;23.02;5.03;;;;;;;6.59;100.00;98102.13;6282474;22;20011;-92
2023/12/06 04:53:39;;;;;;;13.00;5.03;;;;;;;6.16;100.00;98022.06;6308792;22;20019;-93
2023/12/06 04:56:10;;;;;;;12.85;4.00;;;;;;;7.07;100.00;98186.53;6308898;22;20018;-93
2023/12/06 04:58:38;;;;;;;15.63;3.90;;;;;;;6.38;100.00;98045.38;6283144;22;20497;-93
2023/12/06 05:01:07;;;;;;;9.38;4.32;;;;;;;6.68;100.00;98078.16;6281312;22;20038;-92
2023/12/06 05:03:33;;;;;;;14.52;4.63;;;;;;;6.22;100.00;98005.19;6308949;22;20027;-93
2023/12/06 05:05:59;;;;;;;12.80;3.60;;;;;;;7.27;100.00;98169.34;6283735;22;20080;-92
2023/12/06 05:08:26;;;;;;;12.95;4.47;;;;;;;7.10;100.00;98138.00;6283782;22;20157;-93
2023/12/06 05:10:52;;;;;;;11.73;3.90;;;;;;;6.61;100.00;98033.41;6283403;22;20047;-92
2023/12/06 05:13:22;;;;;;;11.85;4.57;;;;;;;7.35;100.00;98151.47;6309881;22;20023;-93
2023/12/06 05:15:51;;;;;;;11.23;4.20;;;;;;;6.44;100.00;97997.69;6281816;22;20069;-93
2023/12/06 05:18:19;;;;;;;14.27;4.93;;;;;;;6.82;100.00;98069.03;6282961;22;20015;-92
2023/12/06 05:20:45;;;;;;;21.88;4.30;;;;;;;6.83;100.00;98074.28;6283533;22;20027;-94
2023/12/06 05:23:11;;;;;;;18.92;4.60;;;;;;;6.57;100.00;98009.72;6309596;22;20112;-93
2023/12/06 05:25:39;;;;;;;18.95;5.10;;;;;;;7.40;100.00;98152.25;6282440;22;20021;-94
2023/12/06 05:28:15;;;;;;;14.00;5.30;;;;;;;6.70;100.00;98052.56;6282654;22;20011;-94
2023/12/06 05:30:41;;;;;;;11.25;3.75;;;;;;;6.99;100.00;98109.16;6281328;22;20023;-94
2023/12/06 05:33:12;;;;;;;13.20;4.45;;;;;;;6.43;100.00;98034.69;6282399;22;20043;-93
2023/12/06 05:35:38;;;;;;;16.00;4.22;;;;;;;6.22;100.00;98001.69;6282194;22;20042;-93
2023/12/06 05:38:04;;;;;;;18.98;5.50;;;;;;;6.91;100.00;98158.69;6282863;22;20341;-93
2023/12/06 05:40:41;;;;;;;;;;;;;;;;;;;;;
2023/12/06 05:43:09;;;;;;;17.25;4.07;;;;;;;6.64;100.00;98076.47;6283404;22;20020;-94
2023/12/06 05:45:36;;;;;;;26.88;4.38;;;;;;;6.23;100.00;98014.88;6307402;22;20015;-92
2023/12/06 05:48:04;;;;;;;14.02;4.97;;;;;;;7.17;100.00;98171.31;6307719;22;20345;-92
2023/12/06 05:50:30;;;;;;;32.58;4.65;;;;;;;6.85;100.00;98119.16;6281533;22;20047;-94
2023/12/06 05:52:59;;;;;;;18.95;4.55;;;;;;;6.39;100.00;98089.34;6281552;22;20019;-93
2023/12/06 05:55:33;;;;;;;19.48;4.07;;;;;;;6.20;100.00;98040.47;6281987;22;20019;-92
2023/12/06 05:58:05;;;;;;;15.73;4.93;;;;;;;5.92;100.00;98027.81;6285623;22;20027;-94
2023/12/06 06:01:01;;;;;;;40.83;4.93;;;;;;;5.72;100.00;98036.13;6286588;22;20019;-94
2023/12/06 06:03:32;;;;;;;15.07;3.45;;;;;;;5.79;100.00;98050.94;6288566;22;20049;-95
2023/12/06 06:06:06;;;;;;;15.02;3.97;;;;;;;5.93;100.00;98040.09;6287394;22;20012;-95
2023/12/06 06:08:35;;;;;;;22.77;3.78;;;;;;;6.32;100.00;98148.47;6286909;22;20023;-94
2023/12/06 06:11:04;;;;;;;12.68;3.92;;;;;;;5.88;100.00;98037.56;6288018;22;20019;-94
2023/12/06 06:13:32;;;;;;;11.90;4.13;;;;;;;6.27;100.00;98076.41;6288242;22;20027;-92
2023/12/06 06:16:08;;;;;;;13.50;4.28;;;;;;;7.08;100.00;98214.69;6312531;22;20149;-94
2023/12/06 06:21:57;;;;;;;11.15;3.28;;;;;;;6.19;100.00;98026.41;6273410;22;20011;-93
2023/12/06 06:24:27;;;;;;;11.07;3.33;;;;;;;7.05;100.00;98185.69;6313682;22;20072;-93
2023/12/06 06:26:55;;;;;;;7.10;3.47;;;;;;;6.86;100.00;98148.22;6288396;22;20023;-93
2023/12/06 06:29:26;;;;;;;13.90;3.50;;;;;;;6.08;100.00;98038.97;6314347;22;20102;-94
2023/12/06 06:32:04;;;;;;;7.32;2.67;;;;;;;5.86;100.00;98044.66;6312336;22;20015;-91
2023/12/06 06:34:36;;;;;;;6.72;2.63;;;;;;;6.54;100.00;98160.31;6285920;22;20022;-92
2023/12/06 06:37:04;;;;;;;10.68;3.72;;;;;;;5.53;100.00;98083.94;6285428;22;20042;-92
2023/12/06 06:39:30;;;;;;;8.95;3.35;;;;;;;5.46;100.00;98057.72;6287313;22;20019;-92
2023/12/06 06:41:56;;;;;;;8.13;2.95;;;;;;;5.65;100.00;98076.72;6286649;22;20050;-93
2023/12/06 06:44:31;;;;;;;6.75;3.25;;;;;;;6.64;100.00;98260.56;6286270;22;20022;-91
2023/12/06 06:47:01;;;;;;;6.95;2.45;;;;;;;5.65;100.00;98147.94;6284426;22;20027;-91
2023/12/06 06:49:26;;;;;;;;;;;;;;;6.49;100.00;98256.44;6288820;22;20016;-92
2023/12/06 06:52:03;;;;;;;7.20;2.25;;;;;;;5.91;100.00;98174.72;6287296;22;19935;-92
2023/12/06 06:54:32;;;;;;;6.50;2.38;;;;;;;5.47;100.00;98057.69;6287968;22;20019;-91
2023/12/06 06:57:00;;;;;;;8.15;3.90;;;;;;;5.48;100.00;98074.38;6287736;22;20384;-94
2023/12/06 06:59:30;;;;;;;6.60;2.33;;;;;;;5.55;100.00;98065.44;6287236;22;20019;-92
2023/12/06 07:02:05;;;;;;;7.60;3.00;;;;;;;5.39;100.00;98085.09;6285384;22;20061;-93
2023/12/06 07:04:33;;;;;;;5.93;2.40;;;;;;;5.65;100.00;98074.06;6289438;22;20472;-93
2023/12/06 07:07:02;;;;;;;6.40;2.80;;;;;;;4.76;100.00;98084.31;6284001;22;20073;-91
2023/12/06 07:09:29;;;;;;;6.63;2.35;;;;;;;5.62;100.00;98204.25;6285517;22;20022;-92
2023/12/06 07:12:09;;;;;;;5.25;2.40;;;;;;;6.01;100.00;98222.06;6287003;22;20023;-92
2023/12/06 07:14:38;;;;;;;5.38;1.90;;;;;;;5.06;100.00;98101.44;6286877;22;20015;-92
2023/12/06 07:17:05;;;;;;;8.23;2.17;;;;;;;4.69;100.00;98088.81;6283261;22;20019;-93
2023/12/06 07:19:31;;;;;;;6.38;2.90;;;;;;;5.40;100.00;98229.19;6284528;22;20357;-93
2023/12/06 07:21:57;;;;;;;4.25;2.10;;;;;;;5.32;100.00;98173.97;6313201;22;20315;-93
2023/12/06 07:24:26;;;;;;;5.18;2.47;;;;;;;5.35;100.00;98127.31;6287137;22;20361;-93
2023/12/06 07:27:00;;;;;;;4.65;1.92;;;;;;;5.31;100.00;98083.47;6287336;22;20019;-92
2023/12/06 07:29:34;;;;;;;5.65;2.00;;;;;;;5.64;100.00;98114.50;6287722;22;20023;-94
2023/12/06 07:32:02;;;;;;;6.28;2.30;;;;;;;6.06;100.00;98210.56;6286426;22;20023;-91
2023/12/06 07:34:29;;;;;;;3.65;2.05;;;;;;;5.97;100.00;98195.75;6286732;22;20391;-92
2023/12/06 07:36:58;;;;;;;4.80;2.42;;;;;;;5.66;100.00;98115.34;6287074;22;20023;-92
2023/12/06 07:39:24;;;;;;;4.35;1.85;;;;;;;5.56;100.00;98096.22;6312292;22;20050;-92
2023/12/06 07:41:50;;;;;;;2.92;1.63;;;;;;;6.49;100.00;98253.78;6287110;22;20101;-93
2023/12/06 07:44:17;;;;;;;4.38;1.65;;;;;;;5.67;100.00;98128.53;6288151;22;20026;-94
2023/12/06 07:46:46;;;;;;;;;;;;;;;6.79;100.00;98294.59;6286772;22;20073;-92
2023/12/06 07:49:15;;;;;;;7.72;2.20;;;;;;;6.60;100.00;98258.88;6287659;22;20332;-92
2023/12/06 07:51:47;;;;;;;7.07;1.70;;;;;;;6.91;100.00;98288.19;6288114;22;20023;-93
2023/12/06 07:54:14;;;;;;;5.72;2.10;;;;;;;5.94;100.00;98137.75;6313187;22;20083;-92
2023/12/06 07:56:40;;;;;;;6.88;2.80;;;;;;;6.15;100.00;98238.56;6289954;22;20050;-92
2023/12/06 07:59:06;;;;;;;5.22;2.50;;;;;;;6.50;100.00;98269.59;6289551;22;20031;-92
2023/12/06 08:01:34;;;;;;;4.32;1.70;;;;;;;6.22;100.00;98274.50;6287741;22;20303;-92
2023/12/06 08:04:03;;;;;;;4.32;2.33;;;;;;;5.91;100.00;98206.38;6289496;22;20433;-93
2023/12/06 08:06:32;;;;;;;4.85;2.13;;;;;;;6.79;100.00;98321.03;6315412;22;20011;-92
2023/12/06 08:09:12;;;;;;;6.50;2.17;;;;;;;5.74;100.00;98131.94;6288373;22;20042;-92
2023/12/06 08:11:41;;;;;;;6.15;2.47;;;;;;;6.44;100.00;98245.06;6289577;22;20030;-93
2023/12/06 08:14:07;;;;;;;5.63;2.35;;;;;;;6.09;100.00;98186.72;6289285;22;20026;-93
2023/12/06 08:16:36;;;;;;;6.68;2.22;;;;;;;6.00;100.00;98168.44;6314359;22;20019;-93
2023/12/06 08:19:07;;;;;;;5.50;2.10;;;;;;;6.53;100.00;98258.97;6289097;22;20022;-94
2023/12/06 08:21:36;;;;;;;5.70;2.40;;;;;;;6.00;100.00;98186.91;6288239;22;20491;-94
2023/12/06 08:24:06;;;;;;;4.32;2.22;;;;;;;6.96;100.00;98315.38;6288272;22;20019;-93
2023/12/06 08:26:32;;;;;;;;;;;;;;;7.19;100.00;98329.03;6289842;22;20015;-93
2023/12/06 08:28:58;;;;;;;6.43;2.33;;;;;;;5.93;100.00;98129.84;6289142;22;20269;-94
2023/12/06 08:31:31;;;;;;;5.15;2.05;;;;;;;7.02;100.00;98344.34;6287896;22;20022;-93
2023/12/06 08:33:59;;;;;;;7.82;3.17;;;;;;;5.94;100.00;98177.34;6290875;22;20027;-93
2023/12/06 08:36:35;;;;;;;4.60;2.20;;;;;;;6.19;100.00;98205.91;6318315;22;20025;-95
2023/12/06 08:39:27;;;;;;;6.22;2.55;;;;;;;6.35;100.00;98238.19;6318663;22;20391;-94
2023/12/06 08:41:53;;;;;;;7.25;2.63;;;;;;;5.81;100.00;98146.75;6318965;22;20018;-93
2023/12/06 08:44:27;;;;;;;7.35;3.50;;;;;;;6.08;100.00;98182.34;6317662;22;20396;-94
2023/12/06 08:47:07;;;;;;;7.45;2.72;;;;;;;5.91;100.00;98185.25;6317213;22;20054;-92
2023/12/06 08:49:47;;;;;;;8.55;2.47;;;;;;;6.14;100.00;98191.94;6318366;22;20018;-92
2023/12/06 08:52:15;;;;;;;7.88;3.05;;;;;;;5.83;100.00;98189.81;6315738;22;20033;-92
2023/12/06 08:54:51;;;;;;;7.38;2.90;;;;;;;5.84;100.00;98220.59;6316149;22;20015;-95
2023/12/06 08:57:19;;;;;;;9.90;3.70;;;;;;;6.33;100.00;98324.47;6318080;22;20125;-92
2023/12/06 08:59:53;;;;;;;7.88;3.42;;;;;;;5.52;100.00;98206.16;6317291;22;20437;-93
2023/12/06 09:02:24;;;;;;;8.20;3.08;;;;;;;5.69;100.00;98257.78;6316613;22;20460;-92
2023/12/06 09:04:55;;;;;;;8.60;3.03;;;;;;;5.73;100.00;98197.03;6316382;22;20318;-92
2023/12/06 09:07:27;;;;;;;8.13;3.33;;;;;;;5.96;100.00;98185.22;6315299;22;20015;-91
2023/12/06 09:10:11;;;;;;;8.80;3.65;;;;;;;6.51;100.00;98281.91;6315603;22;20018;-92
2023/12/06 09:12:39;;;;;;;9.57;3.88;;;;;;;6.72;100.00;98328.19;6314725;22;20018;-93
2023/12/06 09:15:06;;;;;;;10.77;3.88;;;;;;;6.65;100.00;98297.50;6315602;22;20049;-91
2023/12/06 09:17:38;;;;;;;10.82;4.13;;;;;;;6.10;100.00;98212.25;6315894;22;20468;-93
2023/12/06 09:20:21;;;;;;;7.18;3.47;;;;;;;6.48;100.00;98244.09;6315459;22;20322;-94
2023/12/06 09:22:50;;;;;;;13.45;4.80;;;;;;;6.61;100.00;98272.03;6315780;22;20626;-92
2023/12/06 09:25:33;;;;;;;10.85;3.75;;;;;;;7.08;100.00;98359.22;6315798;22;20022;-95
2023/12/06 09:28:04;;;;;;;9.32;3.70;;;;;;;7.04;100.00;98347.84;6315258;22;20453;-94
2023/12/06 09:30:49;;;;;;;8.68;4.28;;;;;;;6.97;100.00;98328.59;6314889;22;20019;-92
2023/12/06 09:33:18;;;;;;;8.18;4.07;;;;;;;6.58;100.00;98249.19;6314730;22;20015;-94
2023/12/06 09:35:46;;;;;;;9.60;5.00;;;;;;;6.00;100.00;98209.78;6315623;22;20336;-93
2023/12/06 09:38:13;;;;;;;10.50;4.57;;;;;;;6.56;100.00;98337.28;6315464;22;20068;-94
2023/12/06 09:40:43;;;;;;;14.77;4.45;;;;;;;6.90;100.00;98339.31;6314549;22;20050;-94
2023/12/06 09:43:20;;;;;;;9.60;3.75;;;;;;;6.50;100.00;98226.47;6315388;22;20022;-93
2023/12/06 09:45:47;;;;;;;11.00;4.63;;;;;;;6.60;100.00;98204.25;6312865;22;20025;-92
2023/12/06 09:48:16;;;;;;;12.23;3.95;;;;;;;6.74;100.00;98186.34;6313929;22;20030;-94
2023/12/06 09:50:48;;;;;;;10.50;5.00;;;;;;;7.56;100.00;98369.72;6314544;22;20387;-93
2023/12/06 09:53:16;;;;;;;11.65;4.18;;;;;;;7.24;100.00;98336.00;6315748;22;20022;-91
2023/12/06 09:55:59;;;;;;;12.15;4.70;;;;;;;6.77;100.00;98215.34;6314112;22;20011;-92
2023/12/06 09:58:27;;;;;;;12.10;4.47;;;;;;;6.95;100.00;98248.44;6315113;22;20445;-94
2023/12/06 10:00:53;;;;;;;14.70;3.78;;;;;;;6.57;100.00;98183.16;6314397;22;20042;-92
2023/12/06 10:03:23;;;;;;;14.93;4.70;;;;;;;7.12;100.00;98261.31;6314298;22;20322;-93
2023/12/06 10:05:56;;;;;;;10.98;3.95;;;;;;;7.06;100.00;98250.88;6314727;22;20029;-94
2023/12/06 10:08:31;;;;;;;11.75;4.78;;;;;;;5.99;100.00;98168.47;6315163;22;20440;-92
2023/12/06 10:11:08;;;;;;;11.32;5.07;;;;;;;7.07;100.00;98361.00;6313905;22;20049;-93
2023/12/06 10:13:38;;;;;;;12.85;4.80;;;;;;;6.42;100.00;98194.94;6312989;22;20027;-92
2023/12/06 10:16:17;;;;;;;13.65;4.85;;;;;;;6.35;100.00;98217.94;6312744;22;20437;-93
2023/12/06 10:18:48;;;;;;;11.88;5.18;;;;;;;6.26;100.00;98183.78;6312993;22;20018;-94
2023/12/06 10:21:17;;;;;;;11.43;4.75;;;;;;;6.48;100.00;98180.72;6313412;22;20026;-93
2023/12/06 10:23:57;;;;;;;11.05;4.15;;;;;;;7.37;100.00;98329.53;6312968;22;20429;-94
2023/12/06 10:26:28;;;;;;;10.98;4.68;;;;;;;7.05;100.00;98267.63;6312356;22;20022;-92
2023/12/06 10:28:58;;;;;;;10.13;4.30;;;;;;;6.64;100.00;98186.56;6312719;22;20451;-91
2023/12/06 10:31:41;;;;;;;11.27;4.95;;;;;;;7.77;100.00;98340.13;6311915;22;20018;-94
2023/12/06 10:34:09;;;;;;;9.00;3.80;;;;;;;7.57;100.00;98297.38;6308815;22;20037;-94
2023/12/06 10:36:37;;;;;;;11.05;3.85;;;;;;;7.62;100.00;98300.78;6312892;22;20018;-93
2023/12/06 10:39:06;;;;;;;10.43;3.92;;;;;;;7.68;100.00;98350.94;6312327;22;20021;-93
2023/12/06 10:41:36;;;;;;;8.63;3.47;;;;;;;6.68;100.00;98178.56;6311985;22;20014;-92
2023/12/06 10:44:08;;;;;;;10.13;3.88;;;;;;;7.23;100.00;98233.78;6311376;22;20025;-93
2023/12/06 10:46:40;;;;;;;12.98;4.65;;;;;;;6.82;100.00;98159.75;6311519;22;20405;-91
2023/12/06 10:49:23;;;;;;;12.60;4.60;;;;;;;7.61;100.00;98280.50;6312365;22;20018;-92
2023/12/06 10:51:51;;;;;;;10.75;4.30;;;;;;;7.51;100.00;98234.88;6312548;22;20025;-92
2023/12/06 10:54:17;;;;;;;10.98;5.18;;;;;;;7.73;100.00;98276.72;6312182;22;20019;-93
2023/12/06 10:56:46;;;;;;;10.40;5.20;;;;;;;7.06;100.00;98158.31;6312614;22;20014;-92
2023/12/06 10:59:16;;;;;;;10.05;4.55;;;;;;;8.09;100.00;98327.03;6311963;22;20015;-92
2023/12/06 11:01:43;;;;;;;10.55;4.07;;;;;;;7.47;100.00;98206.75;6311889;22;20067;-94
2023/12/06 11:04:10;;;;;;;13.23;5.00;;;;;;;7.40;100.00;98179.56;6312164;22;20072;-93
2023/12/06 11:06:46;;;;;;;12.27;5.03;;;;;;;8.44;100.00;98334.16;6312203;22;20026;-94
2023/12/06 11:09:29;;;;;;;8.80;3.88;;;;;;;7.97;100.00;98257.59;6312918;22;20022;-91
2023/12/06 11:12:27;;;;;;;9.35;4.70;;;;;;;8.51;100.00;98348.97;6312338;22;20033;-92
2023/12/06 11:15:19;;;;;;;8.75;4.20;;;;;;;7.29;100.00;98229.22;6312879;22;20042;-93
2023/12/06 11:18:00;;;;;;;7.65;3.75;;;;;;;7.21;100.00;98165.03;6313246;22;20027;-94
2023/12/06 11:20:37;;;;;;;6.10;3.45;;;;;;;6.92;100.00;98178.94;6309112;22;20023;-94
2023/12/06 11:23:03;;;;;;;8.55;3.65;;;;;;;6.96;100.00;98148.84;6313816;22;20019;-95
2023/12/06 11:25:29;;;;;;;6.72;3.78;;;;;;;7.15;100.00;98305.31;6314552;22;20107;-93
2023/12/06 11:27:59;;;;;;;6.43;3.15;;;;;;;6.92;100.00;98213.28;6312700;22;20432;-93
2023/12/06 11:30:33;;;;;;;7.53;3.08;;;;;;;6.77;100.00;98140.50;6310641;22;20019;-93
2023/12/06 11:33:11;;;;;;;7.43;3.10;;;;;;;6.82;100.00;98148.31;6311894;22;20049;-94
2023/12/06 11:35:57;;;;;;;7.28;3.65;;;;;;;7.08;100.00;98167.09;6311989;22;20372;-94
2023/12/06 11:38:40;;;;;;;7.30;3.60;;;;;;;6.94;100.00;98158.59;6311213;22;20082;-95
2023/12/06 11:41:13;;;;;;;7.60;4.05;;;;;;;7.25;100.00;98221.38;6311852;22;20018;-94
2023/12/06 11:43:47;;;;;;;9.43;4.15;;;;;;;7.12;100.00;98223.44;6311989;22;20010;-93
2023/12/06 11:46:30;;;;;;;8.77;3.70;;;;;;;7.87;100.00;98311.69;6311426;22;20015;-94
2023/12/06 11:49:06;;;;;;;5.25;3.03;;;;;;;7.11;100.00;98182.91;6312500;22;20019;-93
2023/12/06 11:51:34;;;;;;;5.70;3.22;;;;;;;6.79;100.00;98099.91;6311895;22;20078;-93
2023/12/06 11:54:01;;;;;;;7.05;3.15;;;;;;;7.13;100.00;98129.97;6312174;22;20022;-95
2023/12/06 11:56:30;;;;;;;6.03;3.15;;;;;;;8.10;100.00;98275.81;6312197;22;20015;-94
2023/12/06 11:59:03;;;;;;;5.35;3.03;;;;;;;7.43;100.00;98141.59;6312109;22;20098;-94